Meteo Giornale » Osservazioni meteo Stati Uniti (USA) » Barksdale
ore: 23:55 - Osservazioni Meteo Barksdale
Lat. 32° 30' N Lon. 93° 40' W Alt. 51 metri s.l.m.
28 °C
Sereno
Temp. 24 Ore
24 °C
37 °C
Nord
0 Km/h
Dew point 22 °C
Umidità 69 %
Visibilità 10 Km
Il sole sorge alle ore 06:49
Il sole tramonta alle ore 19:39
| Data e Ora | Cielo e Fenomeni | T °C | DP °C | Um. % | Pres. hPa | Vis. km | Vento km/h | |
|---|---|---|---|---|---|---|---|---|
| Ieri h: 23:55 | Sereno | 28 | 22 | 69 | 1015 | 10 | N 0 | |
| Ieri h: 22:55 | Sereno | 29 | 22 | 66 | 1015 | 10 | E/SE 9.3 | |
| Ieri h: 21:55 | Sereno | 29 | 22 | 66 | 1015 | 10 | E 9.3 | |
| Ieri h: 20:55 | Sereno | 30 | 21 | 58 | 1014 | 10 | E 7.4 | |
| Ieri h: 20:17 | Sereno | 31 | 21 | 55 | 1014 | 11 | E 7.4 | |
| Ieri h: 20:14 | Pioggia | 31 | 21 | 55 | 1014 | 10 | E/SE 7.4 | |
| Ieri h: 19:55 | Sereno | 32 | 20 | 49 | 1014 | 10 | N 0 | |
| Ieri h: 18:55 | Sereno | 35 | 19 | 39 | 1014 | 10 | E/SE 14.8 | |
| Ieri h: 17:55 | Sereno | 36 | 20 | 39 | 1014 | 10 | E 14.8 | |
| Ieri h: 16:55 | Sereno | 37 | 20 | 37 | 1014 | 10 | E/SE 14.8 | |
| Ieri h: 15:55 | Sereno | 37 | 19 | 35 | 1015 | 10 | E/SE 18.5 | |
| Ieri h: 14:55 | Poco Nuvoloso | 37 | 20 | 37 | 1015 | 10 | SE 13 | |
| Ieri h: 13:55 | Nuvoloso | 35 | 20 | 41 | 1016 | 10 | E/NE 7.4 | |
| Ieri h: 12:55 | Poco Nuvoloso | 35 | 20 | 41 | 1017 | 10 | N 5.5 | |
| Ieri h: 11:55 | Sereno | 34 | 20 | 43 | 1017 | 10 | N 0 | |
| Ieri h: 10:55 | Sereno | 33 | 21 | 49 | 1018 | 10 | N 0 | |
| Ieri h: 09:55 | Sereno | 32 | 22 | 55 | 1017 | 10 | N 0 | |
| Ieri h: 08:55 | Sereno | 29 | 23 | 70 | 1017 | 10 | S 7.4 | |
| Ieri h: 07:55 | Sereno | 26 | 22 | 78 | 1017 | 10 | N 0 | |
| Ieri h: 06:55 | Sereno | 24 | 21 | 83 | 1016 | 14 | N 0 | |
| Ieri h: 05:55 | Sereno | 25 | 21 | 78 | 1016 | 10 | N 0 | |
| Ieri h: 04:55 | Sereno | 25 | 21 | 78 | 1015 | 10 | N 5.5 | |
| Ieri h: 03:55 | Nuvoloso | 26 | 21 | 73 | 1015 | 10 | SE 9.3 | |
| Ieri h: 02:55 | Sereno | 26 | 21 | 73 | 1015 | 10 | S/SE 11.1 | |
| Ieri h: 01:55 | Poco Nuvoloso | 27 | 21 | 69 | 1015 | 10 | SE 13 | |
| Ieri h: 00:55 | Nuvoloso | 27 | 21 | 69 | 1015 | 10 | S/SE 9.3 | |



